sensor_id;sensor_type;location;lat;lon;timestamp;P1;durP1;ratioP1;P2;durP2;ratioP2
22034;SDS011;11181;51.002;4.356;2024-01-07T00:00:25;10.67;;;7.00;;
22034;SDS011;11181;51.002;4.356;2024-01-07T00:02:51;11.53;;;6.83;;
22034;SDS011;11181;51.002;4.356;2024-01-07T00:05:20;10.30;;;7.07;;
22034;SDS011;11181;51.002;4.356;2024-01-07T00:07:47;10.47;;;6.60;;
22034;SDS011;11181;51.002;4.356;2024-01-07T00:10:15;9.40;;;6.17;;
22034;SDS011;11181;51.002;4.356;2024-01-07T00:12:42;10.60;;;7.10;;
22034;SDS011;11181;51.002;4.356;2024-01-07T00:15:10;9.13;;;6.30;;
22034;SDS011;11181;51.002;4.356;2024-01-07T00:17:37;11.53;;;7.23;;
22034;SDS011;11181;51.002;4.356;2024-01-07T00:20:04;11.13;;;6.93;;
22034;SDS011;11181;51.002;4.356;2024-01-07T00:22:33;9.37;;;6.73;;
22034;SDS011;11181;51.002;4.356;2024-01-07T00:25:00;9.50;;;6.50;;
22034;SDS011;11181;51.002;4.356;2024-01-07T00:27:27;9.63;;;6.03;;
22034;SDS011;11181;51.002;4.356;2024-01-07T00:29:53;10.30;;;5.43;;
22034;SDS011;11181;51.002;4.356;2024-01-07T00:32:20;7.87;;;5.97;;
22034;SDS011;11181;51.002;4.356;2024-01-07T00:34:47;11.47;;;6.47;;
22034;SDS011;11181;51.002;4.356;2024-01-07T00:37:14;9.43;;;6.37;;
22034;SDS011;11181;51.002;4.356;2024-01-07T00:39:42;9.90;;;6.23;;
22034;SDS011;11181;51.002;4.356;2024-01-07T00:42:10;9.07;;;5.90;;
22034;SDS011;11181;51.002;4.356;2024-01-07T00:44:37;7.83;;;6.00;;
22034;SDS011;11181;51.002;4.356;2024-01-07T00:47:04;12.03;;;5.97;;
22034;SDS011;11181;51.002;4.356;2024-01-07T00:49:31;8.37;;;5.97;;
22034;SDS011;11181;51.002;4.356;2024-01-07T00:51:58;7.70;;;5.60;;
22034;SDS011;11181;51.002;4.356;2024-01-07T00:54:25;11.33;;;6.60;;
22034;SDS011;11181;51.002;4.356;2024-01-07T00:56:53;10.33;;;6.40;;
22034;SDS011;11181;51.002;4.356;2024-01-07T00:59:20;7.90;;;6.67;;
22034;SDS011;11181;51.002;4.356;2024-01-07T01:01:47;11.17;;;6.83;;
22034;SDS011;11181;51.002;4.356;2024-01-07T01:04:14;10.40;;;5.87;;
22034;SDS011;11181;51.002;4.356;2024-01-07T01:06:40;9.37;;;6.70;;
22034;SDS011;11181;51.002;4.356;2024-01-07T01:09:07;7.10;;;5.80;;
22034;SDS011;11181;51.002;4.356;2024-01-07T01:11:34;10.17;;;6.73;;
22034;SDS011;11181;51.002;4.356;2024-01-07T01:14:02;10.33;;;6.53;;
22034;SDS011;11181;51.002;4.356;2024-01-07T01:16:29;8.67;;;7.20;;
22034;SDS011;11181;51.002;4.356;2024-01-07T01:18:56;11.47;;;8.00;;
22034;SDS011;11181;51.002;4.356;2024-01-07T01:21:23;10.30;;;7.83;;
22034;SDS011;11181;51.002;4.356;2024-01-07T01:23:50;9.80;;;7.80;;
22034;SDS011;11181;51.002;4.356;2024-01-07T01:26:17;12.03;;;8.03;;
22034;SDS011;11181;51.002;4.356;2024-01-07T01:28:44;10.43;;;7.33;;
22034;SDS011;11181;51.002;4.356;2024-01-07T01:31:13;9.80;;;7.57;;
22034;SDS011;11181;51.002;4.356;2024-01-07T01:33:40;13.87;;;9.13;;
22034;SDS011;11181;51.002;4.356;2024-01-07T01:36:09;13.13;;;8.53;;
22034;SDS011;11181;51.002;4.356;2024-01-07T01:38:40;12.17;;;8.77;;
22034;SDS011;11181;51.002;4.356;2024-01-07T01:41:07;16.97;;;10.50;;
22034;SDS011;11181;51.002;4.356;2024-01-07T01:43:34;13.53;;;9.33;;
22034;SDS011;11181;51.002;4.356;2024-01-07T01:46:01;14.17;;;8.90;;
22034;SDS011;11181;51.002;4.356;2024-01-07T01:48:30;13.97;;;9.27;;
22034;SDS011;11181;51.002;4.356;2024-01-07T01:50:57;13.13;;;8.83;;
22034;SDS011;11181;51.002;4.356;2024-01-07T01:53:25;12.77;;;8.57;;
22034;SDS011;11181;51.002;4.356;2024-01-07T01:55:53;12.90;;;8.17;;
22034;SDS011;11181;51.002;4.356;2024-01-07T01:58:23;15.60;;;8.97;;
22034;SDS011;11181;51.002;4.356;2024-01-07T02:00:53;12.63;;;8.07;;
22034;SDS011;11181;51.002;4.356;2024-01-07T02:03:20;11.40;;;8.27;;
22034;SDS011;11181;51.002;4.356;2024-01-07T02:05:49;13.43;;;8.73;;
22034;SDS011;11181;51.002;4.356;2024-01-07T02:08:16;11.93;;;8.10;;
22034;SDS011;11181;51.002;4.356;2024-01-07T02:10:44;14.10;;;9.33;;
22034;SDS011;11181;51.002;4.356;2024-01-07T02:13:11;15.60;;;9.97;;
22034;SDS011;11181;51.002;4.356;2024-01-07T02:15:38;12.70;;;8.93;;
22034;SDS011;11181;51.002;4.356;2024-01-07T02:18:05;17.03;;;10.27;;
22034;SDS011;11181;51.002;4.356;2024-01-07T02:20:32;12.73;;;7.90;;
22034;SDS011;11181;51.002;4.356;2024-01-07T02:23:02;13.63;;;8.80;;
22034;SDS011;11181;51.002;4.356;2024-01-07T02:25:34;12.27;;;8.50;;
22034;SDS011;11181;51.002;4.356;2024-01-07T02:28:01;13.97;;;8.60;;
22034;SDS011;11181;51.002;4.356;2024-01-07T02:30:28;13.60;;;9.27;;
22034;SDS011;11181;51.002;4.356;2024-01-07T02:32:55;12.83;;;8.37;;
22034;SDS011;11181;51.002;4.356;2024-01-07T02:35:22;13.93;;;8.53;;
22034;SDS011;11181;51.002;4.356;2024-01-07T02:37:49;15.63;;;9.37;;
22034;SDS011;11181;51.002;4.356;2024-01-07T02:40:16;14.20;;;9.43;;
22034;SDS011;11181;51.002;4.356;2024-01-07T02:42:44;13.37;;;8.17;;
22034;SDS011;11181;51.002;4.356;2024-01-07T02:45:11;15.30;;;9.80;;
22034;SDS011;11181;51.002;4.356;2024-01-07T02:47:38;16.93;;;10.27;;
22034;SDS011;11181;51.002;4.356;2024-01-07T02:50:05;13.97;;;9.10;;
22034;SDS011;11181;51.002;4.356;2024-01-07T02:52:32;14.53;;;9.77;;
22034;SDS011;11181;51.002;4.356;2024-01-07T02:54:59;16.63;;;9.30;;
22034;SDS011;11181;51.002;4.356;2024-01-07T02:57:26;13.73;;;9.20;;
22034;SDS011;11181;51.002;4.356;2024-01-07T02:59:55;14.47;;;10.33;;
22034;SDS011;11181;51.002;4.356;2024-01-07T03:02:22;16.00;;;10.10;;
22034;SDS011;11181;51.002;4.356;2024-01-07T03:04:48;14.37;;;9.00;;
22034;SDS011;11181;51.002;4.356;2024-01-07T03:07:15;18.63;;;11.13;;
22034;SDS011;11181;51.002;4.356;2024-01-07T03:09:42;16.93;;;10.97;;
22034;SDS011;11181;51.002;4.356;2024-01-07T03:12:09;16.10;;;9.80;;
22034;SDS011;11181;51.002;4.356;2024-01-07T03:14:36;17.00;;;10.40;;
22034;SDS011;11181;51.002;4.356;2024-01-07T03:17:04;16.77;;;10.43;;
22034;SDS011;11181;51.002;4.356;2024-01-07T03:19:31;15.77;;;10.93;;
22034;SDS011;11181;51.002;4.356;2024-01-07T03:21:58;18.30;;;10.97;;
22034;SDS011;11181;51.002;4.356;2024-01-07T03:24:25;16.43;;;11.00;;
22034;SDS011;11181;51.002;4.356;2024-01-07T03:26:52;22.13;;;13.27;;
22034;SDS011;11181;51.002;4.356;2024-01-07T03:29:19;17.47;;;10.80;;
22034;SDS011;11181;51.002;4.356;2024-01-07T03:31:46;17.70;;;11.87;;
22034;SDS011;11181;51.002;4.356;2024-01-07T03:34:14;16.33;;;11.00;;
22034;SDS011;11181;51.002;4.356;2024-01-07T03:36:41;19.33;;;12.30;;
22034;SDS011;11181;51.002;4.356;2024-01-07T03:39:08;19.97;;;12.13;;
22034;SDS011;11181;51.002;4.356;2024-01-07T03:41:34;18.97;;;10.77;;
22034;SDS011;11181;51.002;4.356;2024-01-07T03:44:01;17.27;;;11.70;;
22034;SDS011;11181;51.002;4.356;2024-01-07T03:46:28;18.87;;;11.77;;
22034;SDS011;11181;51.002;4.356;2024-01-07T03:48:55;16.77;;;11.27;;
22034;SDS011;11181;51.002;4.356;2024-01-07T03:51:24;20.67;;;11.60;;
22034;SDS011;11181;51.002;4.356;2024-01-07T03:53:51;19.97;;;12.23;;
22034;SDS011;11181;51.002;4.356;2024-01-07T03:56:18;21.30;;;12.53;;
22034;SDS011;11181;51.002;4.356;2024-01-07T03:58:44;19.73;;;12.03;;
22034;SDS011;11181;51.002;4.356;2024-01-07T04:01:15;22.37;;;12.67;;
22034;SDS011;11181;51.002;4.356;2024-01-07T04:03:43;19.03;;;11.73;;
22034;SDS011;11181;51.002;4.356;2024-01-07T04:06:09;21.27;;;13.33;;
22034;SDS011;11181;51.002;4.356;2024-01-07T04:08:38;20.47;;;13.20;;
22034;SDS011;11181;51.002;4.356;2024-01-07T04:11:04;21.20;;;12.70;;
22034;SDS011;11181;51.002;4.356;2024-01-07T04:13:31;24.27;;;12.47;;
22034;SDS011;11181;51.002;4.356;2024-01-07T04:15:59;19.53;;;13.60;;
22034;SDS011;11181;51.002;4.356;2024-01-07T04:18:26;25.07;;;13.47;;
22034;SDS011;11181;51.002;4.356;2024-01-07T04:20:53;25.20;;;14.07;;
22034;SDS011;11181;51.002;4.356;2024-01-07T04:23:20;23.50;;;12.93;;
22034;SDS011;11181;51.002;4.356;2024-01-07T04:25:48;19.73;;;12.97;;
22034;SDS011;11181;51.002;4.356;2024-01-07T04:28:15;22.17;;;13.00;;
22034;SDS011;11181;51.002;4.356;2024-01-07T04:30:42;22.90;;;13.20;;
22034;SDS011;11181;51.002;4.356;2024-01-07T04:33:09;22.03;;;13.27;;
22034;SDS011;11181;51.002;4.356;2024-01-07T04:35:36;20.93;;;12.63;;
22034;SDS011;11181;51.002;4.356;2024-01-07T04:38:03;20.10;;;12.10;;
22034;SDS011;11181;51.002;4.356;2024-01-07T04:40:33;20.93;;;12.47;;
22034;SDS011;11181;51.002;4.356;2024-01-07T04:43:01;19.40;;;11.90;;
22034;SDS011;11181;51.002;4.356;2024-01-07T04:45:30;18.57;;;11.57;;
22034;SDS011;11181;51.002;4.356;2024-01-07T04:47:57;17.20;;;11.47;;
22034;SDS011;11181;51.002;4.356;2024-01-07T04:50:24;22.13;;;12.50;;
22034;SDS011;11181;51.002;4.356;2024-01-07T04:52:51;19.77;;;11.87;;
22034;SDS011;11181;51.002;4.356;2024-01-07T04:55:18;20.10;;;11.33;;
22034;SDS011;11181;51.002;4.356;2024-01-07T04:57:45;19.53;;;13.23;;
22034;SDS011;11181;51.002;4.356;2024-01-07T05:00:14;18.33;;;11.67;;
22034;SDS011;11181;51.002;4.356;2024-01-07T05:02:41;28.07;;;13.20;;
22034;SDS011;11181;51.002;4.356;2024-01-07T05:05:08;17.67;;;11.43;;
22034;SDS011;11181;51.002;4.356;2024-01-07T05:07:35;17.13;;;11.13;;
22034;SDS011;11181;51.002;4.356;2024-01-07T05:10:03;19.47;;;12.53;;
22034;SDS011;11181;51.002;4.356;2024-01-07T05:12:31;16.40;;;11.27;;
22034;SDS011;11181;51.002;4.356;2024-01-07T05:14:58;17.47;;;11.53;;
22034;SDS011;11181;51.002;4.356;2024-01-07T05:17:26;18.13;;;12.03;;
22034;SDS011;11181;51.002;4.356;2024-01-07T05:19:55;20.73;;;12.33;;
22034;SDS011;11181;51.002;4.356;2024-01-07T05:22:21;16.80;;;11.80;;
22034;SDS011;11181;51.002;4.356;2024-01-07T05:24:48;18.47;;;11.93;;
22034;SDS011;11181;51.002;4.356;2024-01-07T05:27:15;21.77;;;13.00;;
22034;SDS011;11181;51.002;4.356;2024-01-07T05:29:44;18.60;;;12.23;;
22034;SDS011;11181;51.002;4.356;2024-01-07T05:32:12;19.53;;;12.50;;
22034;SDS011;11181;51.002;4.356;2024-01-07T05:34:40;23.37;;;13.07;;
22034;SDS011;11181;51.002;4.356;2024-01-07T05:37:07;21.53;;;12.83;;
22034;SDS011;11181;51.002;4.356;2024-01-07T05:39:34;19.47;;;12.40;;
22034;SDS011;11181;51.002;4.356;2024-01-07T05:42:01;20.77;;;11.97;;
22034;SDS011;11181;51.002;4.356;2024-01-07T05:44:27;19.00;;;12.60;;
22034;SDS011;11181;51.002;4.356;2024-01-07T05:46:54;20.40;;;13.63;;
22034;SDS011;11181;51.002;4.356;2024-01-07T05:49:21;18.77;;;12.53;;
22034;SDS011;11181;51.002;4.356;2024-01-07T05:51:53;21.17;;;13.37;;
22034;SDS011;11181;51.002;4.356;2024-01-07T05:54:20;20.03;;;12.60;;
22034;SDS011;11181;51.002;4.356;2024-01-07T05:56:47;21.10;;;13.37;;
22034;SDS011;11181;51.002;4.356;2024-01-07T05:59:14;18.60;;;11.87;;
22034;SDS011;11181;51.002;4.356;2024-01-07T06:01:41;23.73;;;13.93;;
22034;SDS011;11181;51.002;4.356;2024-01-07T06:04:08;23.53;;;13.57;;
22034;SDS011;11181;51.002;4.356;2024-01-07T06:06:35;25.90;;;14.83;;
22034;SDS011;11181;51.002;4.356;2024-01-07T06:09:03;24.73;;;14.13;;
22034;SDS011;11181;51.002;4.356;2024-01-07T06:11:30;22.00;;;12.80;;
22034;SDS011;11181;51.002;4.356;2024-01-07T06:13:57;23.37;;;12.97;;
22034;SDS011;11181;51.002;4.356;2024-01-07T06:16:24;22.30;;;13.53;;
22034;SDS011;11181;51.002;4.356;2024-01-07T06:18:50;22.93;;;14.23;;
22034;SDS011;11181;51.002;4.356;2024-01-07T06:21:20;24.40;;;15.27;;
22034;SDS011;11181;51.002;4.356;2024-01-07T06:23:47;26.17;;;14.50;;
22034;SDS011;11181;51.002;4.356;2024-01-07T06:26:16;22.47;;;14.47;;
22034;SDS011;11181;51.002;4.356;2024-01-07T06:28:43;27.90;;;14.37;;
22034;SDS011;11181;51.002;4.356;2024-01-07T06:31:09;26.93;;;14.63;;
22034;SDS011;11181;51.002;4.356;2024-01-07T06:33:36;25.23;;;14.07;;
22034;SDS011;11181;51.002;4.356;2024-01-07T06:36:03;28.27;;;14.93;;
22034;SDS011;11181;51.002;4.356;2024-01-07T06:38:30;25.93;;;15.00;;
22034;SDS011;11181;51.002;4.356;2024-01-07T06:40:59;25.30;;;15.30;;
22034;SDS011;11181;51.002;4.356;2024-01-07T06:43:30;27.40;;;15.47;;
22034;SDS011;11181;51.002;4.356;2024-01-07T06:45:57;31.60;;;15.23;;
22034;SDS011;11181;51.002;4.356;2024-01-07T06:48:24;24.77;;;14.40;;
22034;SDS011;11181;51.002;4.356;2024-01-07T06:50:51;28.43;;;15.73;;
22034;SDS011;11181;51.002;4.356;2024-01-07T06:53:17;32.87;;;16.60;;
22034;SDS011;11181;51.002;4.356;2024-01-07T06:55:44;27.50;;;15.77;;
22034;SDS011;11181;51.002;4.356;2024-01-07T06:58:11;40.67;;;18.80;;
22034;SDS011;11181;51.002;4.356;2024-01-07T07:00:39;35.20;;;16.93;;
22034;SDS011;11181;51.002;4.356;2024-01-07T07:03:07;34.57;;;17.03;;
22034;SDS011;11181;51.002;4.356;2024-01-07T07:05:34;38.80;;;18.80;;
22034;SDS011;11181;51.002;4.356;2024-01-07T07:08:01;38.47;;;19.97;;
22034;SDS011;11181;51.002;4.356;2024-01-07T07:10:28;33.93;;;17.60;;
22034;SDS011;11181;51.002;4.356;2024-01-07T07:12:56;36.80;;;18.27;;
22034;SDS011;11181;51.002;4.356;2024-01-07T07:15:23;35.43;;;18.30;;
22034;SDS011;11181;51.002;4.356;2024-01-07T07:17:53;32.47;;;17.60;;
22034;SDS011;11181;51.002;4.356;2024-01-07T07:20:20;38.10;;;19.90;;
22034;SDS011;11181;51.002;4.356;2024-01-07T07:22:47;36.70;;;17.77;;
22034;SDS011;11181;51.002;4.356;2024-01-07T07:25:14;31.27;;;16.53;;
22034;SDS011;11181;51.002;4.356;2024-01-07T07:27:41;33.37;;;18.10;;
22034;SDS011;11181;51.002;4.356;2024-01-07T07:30:08;32.67;;;18.47;;
22034;SDS011;11181;51.002;4.356;2024-01-07T07:32:38;37.20;;;18.17;;
22034;SDS011;11181;51.002;4.356;2024-01-07T07:35:07;34.37;;;16.93;;
22034;SDS011;11181;51.002;4.356;2024-01-07T07:37:34;32.33;;;16.10;;
22034;SDS011;11181;51.002;4.356;2024-01-07T07:40:01;33.37;;;17.03;;
22034;SDS011;11181;51.002;4.356;2024-01-07T07:42:29;36.20;;;19.53;;
22034;SDS011;11181;51.002;4.356;2024-01-07T07:44:55;38.47;;;18.37;;
22034;SDS011;11181;51.002;4.356;2024-01-07T07:47:22;33.40;;;17.10;;
22034;SDS011;11181;51.002;4.356;2024-01-07T07:49:49;33.00;;;16.57;;
22034;SDS011;11181;51.002;4.356;2024-01-07T07:52:18;36.17;;;18.27;;
22034;SDS011;11181;51.002;4.356;2024-01-07T07:54:48;33.67;;;17.57;;
22034;SDS011;11181;51.002;4.356;2024-01-07T07:57:15;32.53;;;17.27;;
22034;SDS011;11181;51.002;4.356;2024-01-07T07:59:42;29.27;;;17.33;;
22034;SDS011;11181;51.002;4.356;2024-01-07T08:02:09;31.70;;;16.90;;
22034;SDS011;11181;51.002;4.356;2024-01-07T08:04:36;30.93;;;17.13;;
22034;SDS011;11181;51.002;4.356;2024-01-07T08:07:06;31.67;;;17.20;;
22034;SDS011;11181;51.002;4.356;2024-01-07T08:09:34;29.17;;;15.67;;
22034;SDS011;11181;51.002;4.356;2024-01-07T08:12:02;29.23;;;17.97;;
22034;SDS011;11181;51.002;4.356;2024-01-07T08:14:29;30.23;;;15.23;;
22034;SDS011;11181;51.002;4.356;2024-01-07T08:16:56;25.97;;;15.27;;
22034;SDS011;11181;51.002;4.356;2024-01-07T08:19:23;28.57;;;15.60;;
22034;SDS011;11181;51.002;4.356;2024-01-07T08:21:50;28.07;;;15.23;;
22034;SDS011;11181;51.002;4.356;2024-01-07T08:24:17;23.80;;;14.17;;
22034;SDS011;11181;51.002;4.356;2024-01-07T08:26:46;26.80;;;15.27;;
22034;SDS011;11181;51.002;4.356;2024-01-07T08:29:13;25.53;;;14.73;;
22034;SDS011;11181;51.002;4.356;2024-01-07T08:31:39;24.33;;;15.07;;
22034;SDS011;11181;51.002;4.356;2024-01-07T08:34:07;29.63;;;16.37;;
22034;SDS011;11181;51.002;4.356;2024-01-07T08:36:34;29.70;;;16.47;;
22034;SDS011;11181;51.002;4.356;2024-01-07T08:39:04;25.87;;;16.17;;
22034;SDS011;11181;51.002;4.356;2024-01-07T08:41:31;30.83;;;15.93;;
22034;SDS011;11181;51.002;4.356;2024-01-07T08:43:59;29.83;;;17.60;;
22034;SDS011;11181;51.002;4.356;2024-01-07T08:46:26;27.80;;;16.10;;
22034;SDS011;11181;51.002;4.356;2024-01-07T08:48:53;31.90;;;17.90;;
22034;SDS011;11181;51.002;4.356;2024-01-07T08:51:20;26.70;;;16.33;;
22034;SDS011;11181;51.002;4.356;2024-01-07T08:53:47;28.20;;;15.67;;
22034;SDS011;11181;51.002;4.356;2024-01-07T08:56:14;25.90;;;15.37;;
22034;SDS011;11181;51.002;4.356;2024-01-07T08:58:41;27.90;;;14.77;;
22034;SDS011;11181;51.002;4.356;2024-01-07T09:01:10;29.93;;;16.00;;
22034;SDS011;11181;51.002;4.356;2024-01-07T09:03:39;25.23;;;14.60;;
22034;SDS011;11181;51.002;4.356;2024-01-07T09:06:06;28.93;;;16.37;;
22034;SDS011;11181;51.002;4.356;2024-01-07T09:08:42;30.90;;;16.77;;
22034;SDS011;11181;51.002;4.356;2024-01-07T09:11:09;23.63;;;14.90;;
22034;SDS011;11181;51.002;4.356;2024-01-07T09:13:38;26.40;;;15.23;;
22034;SDS011;11181;51.002;4.356;2024-01-07T09:16:05;29.43;;;16.00;;
22034;SDS011;11181;51.002;4.356;2024-01-07T09:18:35;30.90;;;17.40;;
22034;SDS011;11181;51.002;4.356;2024-01-07T09:21:03;31.93;;;17.37;;
22034;SDS011;11181;51.002;4.356;2024-01-07T09:23:31;26.07;;;14.77;;
22034;SDS011;11181;51.002;4.356;2024-01-07T09:25:58;33.07;;;16.67;;
22034;SDS011;11181;51.002;4.356;2024-01-07T09:28:25;26.93;;;15.73;;
22034;SDS011;11181;51.002;4.356;2024-01-07T09:30:52;28.50;;;15.83;;
22034;SDS011;11181;51.002;4.356;2024-01-07T09:33:19;29.90;;;15.93;;
22034;SDS011;11181;51.002;4.356;2024-01-07T09:35:49;27.00;;;16.93;;
22034;SDS011;11181;51.002;4.356;2024-01-07T09:38:16;30.37;;;17.33;;
22034;SDS011;11181;51.002;4.356;2024-01-07T09:40:43;29.37;;;17.00;;
22034;SDS011;11181;51.002;4.356;2024-01-07T09:43:10;26.10;;;16.10;;
22034;SDS011;11181;51.002;4.356;2024-01-07T09:45:38;27.73;;;16.23;;
22034;SDS011;11181;51.002;4.356;2024-01-07T09:48:07;24.30;;;16.23;;
22034;SDS011;11181;51.002;4.356;2024-01-07T09:50:39;29.33;;;17.13;;
22034;SDS011;11181;51.002;4.356;2024-01-07T09:53:16;28.40;;;15.73;;
22034;SDS011;11181;51.002;4.356;2024-01-07T09:55:47;25.93;;;15.87;;
22034;SDS011;11181;51.002;4.356;2024-01-07T09:58:21;28.27;;;16.13;;
22034;SDS011;11181;51.002;4.356;2024-01-07T10:00:48;26.97;;;16.50;;
22034;SDS011;11181;51.002;4.356;2024-01-07T10:03:15;29.17;;;15.87;;
22034;SDS011;11181;51.002;4.356;2024-01-07T10:05:42;22.87;;;15.10;;
22034;SDS011;11181;51.002;4.356;2024-01-07T10:08:09;28.67;;;17.53;;
22034;SDS011;11181;51.002;4.356;2024-01-07T10:10:38;27.63;;;16.80;;
22034;SDS011;11181;51.002;4.356;2024-01-07T10:13:05;25.53;;;15.87;;
22034;SDS011;11181;51.002;4.356;2024-01-07T10:15:33;21.80;;;14.27;;
22034;SDS011;11181;51.002;4.356;2024-01-07T10:18:02;20.90;;;14.70;;
22034;SDS011;11181;51.002;4.356;2024-01-07T10:20:31;25.43;;;14.90;;
22034;SDS011;11181;51.002;4.356;2024-01-07T10:22:59;27.57;;;16.73;;
22034;SDS011;11181;51.002;4.356;2024-01-07T10:25:26;20.93;;;13.97;;
22034;SDS011;11181;51.002;4.356;2024-01-07T10:27:54;23.63;;;14.90;;
22034;SDS011;11181;51.002;4.356;2024-01-07T10:30:26;22.87;;;14.07;;
22034;SDS011;11181;51.002;4.356;2024-01-07T10:32:55;24.03;;;14.03;;
22034;SDS011;11181;51.002;4.356;2024-01-07T10:35:23;22.17;;;13.83;;
22034;SDS011;11181;51.002;4.356;2024-01-07T10:37:58;18.77;;;12.80;;
22034;SDS011;11181;51.002;4.356;2024-01-07T10:40:26;18.57;;;12.67;;
22034;SDS011;11181;51.002;4.356;2024-01-07T10:42:55;19.00;;;13.13;;
22034;SDS011;11181;51.002;4.356;2024-01-07T10:45:23;20.40;;;13.17;;
22034;SDS011;11181;51.002;4.356;2024-01-07T10:47:55;18.77;;;12.67;;
22034;SDS011;11181;51.002;4.356;2024-01-07T10:50:26;19.53;;;13.47;;
22034;SDS011;11181;51.002;4.356;2024-01-07T10:52:57;20.27;;;13.27;;
22034;SDS011;11181;51.002;4.356;2024-01-07T10:55:34;20.10;;;14.00;;
22034;SDS011;11181;51.002;4.356;2024-01-07T10:58:04;23.73;;;14.53;;
22034;SDS011;11181;51.002;4.356;2024-01-07T11:00:33;22.07;;;13.07;;
22034;SDS011;11181;51.002;4.356;2024-01-07T11:03:04;20.50;;;13.87;;
22034;SDS011;11181;51.002;4.356;2024-01-07T11:05:37;22.87;;;13.53;;
22034;SDS011;11181;51.002;4.356;2024-01-07T11:08:11;22.33;;;13.13;;
22034;SDS011;11181;51.002;4.356;2024-01-07T11:10:45;20.73;;;14.30;;
22034;SDS011;11181;51.002;4.356;2024-01-07T11:16:03;20.33;;;12.93;;
22034;SDS011;11181;51.002;4.356;2024-01-07T11:18:31;21.70;;;13.43;;
22034;SDS011;11181;51.002;4.356;2024-01-07T11:21:00;18.50;;;12.70;;
22034;SDS011;11181;51.002;4.356;2024-01-07T11:23:31;16.73;;;11.67;;
22034;SDS011;11181;51.002;4.356;2024-01-07T11:26:01;22.13;;;13.07;;
22034;SDS011;11181;51.002;4.356;2024-01-07T11:28:49;22.10;;;13.63;;
22034;SDS011;11181;51.002;4.356;2024-01-07T11:31:17;21.20;;;13.27;;
22034;SDS011;11181;51.002;4.356;2024-01-07T11:33:46;25.67;;;14.47;;
22034;SDS011;11181;51.002;4.356;2024-01-07T11:36:14;19.47;;;12.87;;
22034;SDS011;11181;51.002;4.356;2024-01-07T11:38:43;20.23;;;12.97;;
22034;SDS011;11181;51.002;4.356;2024-01-07T11:41:13;19.80;;;13.00;;
22034;SDS011;11181;51.002;4.356;2024-01-07T11:43:53;18.77;;;12.37;;
22034;SDS011;11181;51.002;4.356;2024-01-07T11:46:21;21.07;;;12.93;;
22034;SDS011;11181;51.002;4.356;2024-01-07T11:48:48;20.13;;;12.43;;
22034;SDS011;11181;51.002;4.356;2024-01-07T11:51:16;19.63;;;12.20;;
22034;SDS011;11181;51.002;4.356;2024-01-07T11:53:45;19.17;;;11.80;;
22034;SDS011;11181;51.002;4.356;2024-01-07T11:56:12;22.50;;;12.33;;
22034;SDS011;11181;51.002;4.356;2024-01-07T11:58:40;20.70;;;13.03;;
22034;SDS011;11181;51.002;4.356;2024-01-07T12:01:08;19.40;;;12.20;;
22034;SDS011;11181;51.002;4.356;2024-01-07T12:03:35;22.50;;;13.13;;
22034;SDS011;11181;51.002;4.356;2024-01-07T12:06:02;20.80;;;14.63;;
22034;SDS011;11181;51.002;4.356;2024-01-07T12:08:29;18.53;;;13.00;;
22034;SDS011;11181;51.002;4.356;2024-01-07T12:10:56;21.03;;;13.20;;
22034;SDS011;11181;51.002;4.356;2024-01-07T12:13:24;21.10;;;13.87;;
22034;SDS011;11181;51.002;4.356;2024-01-07T12:15:51;19.00;;;13.37;;
22034;SDS011;11181;51.002;4.356;2024-01-07T12:18:21;22.60;;;13.27;;
22034;SDS011;11181;51.002;4.356;2024-01-07T12:20:56;17.30;;;12.73;;
22034;SDS011;11181;51.002;4.356;2024-01-07T12:23:23;16.43;;;11.57;;
22034;SDS011;11181;51.002;4.356;2024-01-07T12:25:51;13.50;;;9.83;;
22034;SDS011;11181;51.002;4.356;2024-01-07T12:28:18;14.70;;;10.17;;
22034;SDS011;11181;51.002;4.356;2024-01-07T12:30:45;16.73;;;10.37;;
22034;SDS011;11181;51.002;4.356;2024-01-07T12:33:15;23.20;;;10.43;;
22034;SDS011;11181;51.002;4.356;2024-01-07T12:35:45;20.30;;;11.23;;
22034;SDS011;11181;51.002;4.356;2024-01-07T12:38:13;18.13;;;11.47;;
22034;SDS011;11181;51.002;4.356;2024-01-07T12:40:40;15.87;;;10.80;;
22034;SDS011;11181;51.002;4.356;2024-01-07T12:43:07;15.47;;;10.10;;
22034;SDS011;11181;51.002;4.356;2024-01-07T12:45:34;16.00;;;10.67;;
22034;SDS011;11181;51.002;4.356;2024-01-07T12:48:01;14.20;;;9.30;;
22034;SDS011;11181;51.002;4.356;2024-01-07T12:50:28;15.97;;;8.73;;
22034;SDS011;11181;51.002;4.356;2024-01-07T12:52:58;11.87;;;9.23;;
22034;SDS011;11181;51.002;4.356;2024-01-07T12:55:24;11.73;;;8.60;;
22034;SDS011;11181;51.002;4.356;2024-01-07T12:57:52;12.37;;;8.10;;
22034;SDS011;11181;51.002;4.356;2024-01-07T13:00:20;13.27;;;9.73;;
22034;SDS011;11181;51.002;4.356;2024-01-07T13:02:47;14.50;;;8.87;;
22034;SDS011;11181;51.002;4.356;2024-01-07T13:05:14;15.57;;;9.77;;
22034;SDS011;11181;51.002;4.356;2024-01-07T13:07:42;11.00;;;7.87;;
22034;SDS011;11181;51.002;4.356;2024-01-07T13:10:10;14.80;;;8.80;;
22034;SDS011;11181;51.002;4.356;2024-01-07T13:12:37;16.40;;;9.50;;
22034;SDS011;11181;51.002;4.356;2024-01-07T13:15:05;14.70;;;9.57;;
22034;SDS011;11181;51.002;4.356;2024-01-07T13:17:32;13.30;;;9.30;;
22034;SDS011;11181;51.002;4.356;2024-01-07T13:19:59;14.47;;;9.90;;
22034;SDS011;11181;51.002;4.356;2024-01-07T13:22:26;13.07;;;9.13;;
22034;SDS011;11181;51.002;4.356;2024-01-07T13:24:53;11.80;;;9.20;;
22034;SDS011;11181;51.002;4.356;2024-01-07T13:27:21;15.23;;;10.33;;
22034;SDS011;11181;51.002;4.356;2024-01-07T13:29:48;12.57;;;9.63;;
22034;SDS011;11181;51.002;4.356;2024-01-07T13:32:16;15.90;;;10.13;;
22034;SDS011;11181;51.002;4.356;2024-01-07T13:34:43;14.97;;;9.73;;
22034;SDS011;11181;51.002;4.356;2024-01-07T13:37:11;12.83;;;8.50;;
22034;SDS011;11181;51.002;4.356;2024-01-07T13:39:38;14.13;;;9.23;;
22034;SDS011;11181;51.002;4.356;2024-01-07T13:42:05;12.63;;;9.67;;
22034;SDS011;11181;51.002;4.356;2024-01-07T13:44:34;12.63;;;9.30;;
22034;SDS011;11181;51.002;4.356;2024-01-07T13:47:01;12.30;;;9.40;;
22034;SDS011;11181;51.002;4.356;2024-01-07T13:49:28;12.20;;;8.90;;
22034;SDS011;11181;51.002;4.356;2024-01-07T13:51:57;9.87;;;7.83;;
22034;SDS011;11181;51.002;4.356;2024-01-07T13:54:24;12.30;;;9.03;;
22034;SDS011;11181;51.002;4.356;2024-01-07T13:56:51;16.10;;;10.43;;
22034;SDS011;11181;51.002;4.356;2024-01-07T13:59:19;16.37;;;10.87;;
22034;SDS011;11181;51.002;4.356;2024-01-07T14:01:49;16.20;;;10.20;;
22034;SDS011;11181;51.002;4.356;2024-01-07T14:04:16;14.93;;;9.87;;
22034;SDS011;11181;51.002;4.356;2024-01-07T14:06:43;15.17;;;11.27;;
22034;SDS011;11181;51.002;4.356;2024-01-07T14:09:11;22.17;;;12.23;;
22034;SDS011;11181;51.002;4.356;2024-01-07T14:11:38;15.87;;;10.83;;
22034;SDS011;11181;51.002;4.356;2024-01-07T14:14:05;15.00;;;10.27;;
22034;SDS011;11181;51.002;4.356;2024-01-07T14:16:32;14.37;;;10.37;;
22034;SDS011;11181;51.002;4.356;2024-01-07T14:19:00;13.57;;;9.23;;
22034;SDS011;11181;51.002;4.356;2024-01-07T14:21:27;14.33;;;10.27;;
22034;SDS011;11181;51.002;4.356;2024-01-07T14:23:55;13.17;;;9.23;;
22034;SDS011;11181;51.002;4.356;2024-01-07T14:26:22;18.47;;;11.07;;
22034;SDS011;11181;51.002;4.356;2024-01-07T14:28:49;15.23;;;10.20;;
22034;SDS011;11181;51.002;4.356;2024-01-07T14:31:16;14.70;;;10.10;;